Time,TemperatureF,DewpointF,PressureIn,WindDirection,WindDirectionDegrees,WindSpeedMPH,WindSpeedGustMPH,Humidity,HourlyPrecipIn,Conditions,Clouds,dailyrainin,SoftwareType,DateUTC
2013-11-26 00:00:00,36.1,16.8,30.44,NE,39,0.0,0.0,45,0.00,,,0.00,Wunderground v.1.15,2013-11-26 05:00:00,
2013-11-26 00:05:00,36.0,17.2,30.43,NE,39,0.0,0.0,46,0.00,,,0.00,Wunderground v.1.15,2013-11-26 05:05:00,
2013-11-26 00:10:00,36.0,18.2,30.43,NE,39,0.0,0.0,48,0.00,,,0.00,Wunderground v.1.15,2013-11-26 05:10:00,
2013-11-26 00:15:00,36.1,18.3,30.43,NE,39,0.0,0.0,48,0.00,,,0.00,Wunderground v.1.15,2013-11-26 05:15:00,
2013-11-26 00:20:00,36.1,17.8,30.42,NE,39,0.0,0.0,47,0.00,,,0.00,Wunderground v.1.15,2013-11-26 05:20:00,
2013-11-26 00:30:00,36.4,18.6,30.42,NE,39,0.0,0.0,48,0.00,,,0.00,Wunderground v.1.15,2013-11-26 05:30:00,
2013-11-26 00:35:00,36.5,22.3,30.41,NE,39,0.0,0.0,56,0.00,,,0.00,Wunderground v.1.15,2013-11-26 05:35:00,
2013-11-26 00:40:00,36.4,20.9,30.41,NE,39,0.0,0.0,53,0.00,,,0.00,Wunderground v.1.15,2013-11-26 05:40:00,
2013-11-26 00:45:00,36.3,19.4,30.41,NE,39,0.0,0.0,50,0.00,,,0.00,Wunderground v.1.15,2013-11-26 05:45:00,
2013-11-26 00:50:00,36.3,18.9,30.40,NE,39,0.0,0.0,49,0.00,,,0.00,Wunderground v.1.15,2013-11-26 05:50:00,
2013-11-26 00:55:00,36.3,18.9,30.40,NE,39,0.0,0.0,49,0.00,,,0.00,Wunderground v.1.15,2013-11-26 05:55:00,
2013-11-26 01:00:00,36.4,19.5,30.39,NE,39,0.0,0.0,50,0.00,,,0.00,Wunderground v.1.15,2013-11-26 06:00:00,
2013-11-26 01:10:00,36.4,20.0,30.38,NE,39,0.0,0.0,51,0.00,,,0.00,Wunderground v.1.15,2013-11-26 06:10:00,
2013-11-26 01:15:00,36.4,20.0,30.38,NE,39,0.0,0.0,51,0.00,,,0.00,Wunderground v.1.15,2013-11-26 06:15:00,
2013-11-26 01:20:00,36.2,20.2,30.38,NE,39,0.0,0.0,52,0.00,,,0.00,Wunderground v.1.15,2013-11-26 06:20:00,
2013-11-26 01:25:00,36.2,20.2,30.38,NE,39,0.0,0.0,52,0.00,,,0.00,Wunderground v.1.15,2013-11-26 06:25:00,
2013-11-26 01:30:00,36.1,20.6,30.38,NE,39,0.0,0.0,53,0.00,,,0.00,Wunderground v.1.15,2013-11-26 06:30:00,
2013-11-26 01:35:00,36.2,20.7,30.37,NE,39,0.0,0.0,53,0.00,,,0.00,Wunderground v.1.15,2013-11-26 06:35:00,
2013-11-26 01:40:00,36.2,21.6,30.37,NE,39,0.0,0.0,55,0.00,,,0.00,Wunderground v.1.15,2013-11-26 06:40:00,
2013-11-26 01:50:00,36.2,21.1,30.37,NE,39,0.0,0.0,54,0.00,,,0.00,Wunderground v.1.15,2013-11-26 06:50:00,
2013-11-26 01:55:00,36.2,21.6,30.37,NE,39,0.0,0.0,55,0.00,,,0.00,Wunderground v.1.15,2013-11-26 06:55:00,
2013-11-26 02:00:00,36.3,21.7,30.37,NE,39,0.0,0.0,55,0.00,,,0.00,Wunderground v.1.15,2013-11-26 07:00:00,
2013-11-26 02:10:00,36.4,21.8,30.36,NE,39,0.0,0.0,55,0.00,,,0.00,Wunderground v.1.15,2013-11-26 07:10:00,
2013-11-26 02:15:00,36.4,21.8,30.36,NE,39,0.0,0.0,55,0.00,,,0.00,Wunderground v.1.15,2013-11-26 07:15:00,
2013-11-26 02:25:00,36.4,22.6,30.35,NE,39,0.0,0.0,57,0.00,,,0.00,Wunderground v.1.15,2013-11-26 07:25:00,
2013-11-26 02:30:00,36.3,22.1,30.35,NE,39,0.0,0.0,56,0.00,,,0.00,Wunderground v.1.15,2013-11-26 07:30:00,
2013-11-26 02:35:00,36.3,21.7,30.35,NE,39,0.0,0.0,55,0.00,,,0.00,Wunderground v.1.15,2013-11-26 07:35:00,
2013-11-26 02:40:00,36.3,22.1,30.35,NE,39,0.0,0.0,56,0.00,,,0.00,Wunderground v.1.15,2013-11-26 07:40:00,
2013-11-26 02:45:00,36.2,22.0,30.35,NE,39,0.0,0.0,56,0.00,,,0.00,Wunderground v.1.15,2013-11-26 07:45:00,
2013-11-26 02:50:00,36.3,22.5,30.35,NE,39,0.0,0.0,57,0.00,,,0.00,Wunderground v.1.15,2013-11-26 07:50:00,
2013-11-26 02:55:00,36.3,21.7,30.35,NE,39,0.0,0.0,55,0.00,,,0.00,Wunderground v.1.15,2013-11-26 07:55:00,
2013-11-26 03:00:00,36.4,22.2,30.34,NE,39,0.0,0.0,56,0.00,,,0.00,Wunderground v.1.15,2013-11-26 08:00:00,
2013-11-26 03:10:00,36.4,22.2,30.34,NE,39,0.0,0.0,56,0.00,,,0.00,Wunderground v.1.15,2013-11-26 08:10:00,
2013-11-26 03:15:00,36.4,22.6,30.34,NE,39,0.0,0.0,57,0.00,,,0.00,Wunderground v.1.15,2013-11-26 08:15:00,
2013-11-26 03:20:00,36.4,22.6,30.34,NE,39,0.0,0.0,57,0.00,,,0.00,Wunderground v.1.15,2013-11-26 08:20:00,
2013-11-26 03:25:00,36.4,22.6,30.34,NE,39,0.0,0.0,57,0.00,,,0.00,Wunderground v.1.15,2013-11-26 08:25:00,
2013-11-26 03:30:00,36.5,22.7,30.33,NE,39,0.0,0.0,57,0.00,,,0.00,Wunderground v.1.15,2013-11-26 08:30:00,
2013-11-26 03:35:00,36.5,22.7,30.33,NE,39,0.0,0.0,57,0.00,,,0.00,Wunderground v.1.15,2013-11-26 08:35:00,
2013-11-26 03:45:00,36.6,23.2,30.33,NE,39,0.0,0.0,58,0.00,,,0.00,Wunderground v.1.15,2013-11-26 08:45:00,
2013-11-26 03:50:00,36.7,23.3,30.32,NE,39,0.0,0.0,58,0.00,,,0.00,Wunderground v.1.15,2013-11-26 08:50:00,
2013-11-26 03:55:00,36.7,23.3,30.32,NE,39,0.0,0.0,58,0.00,,,0.00,Wunderground v.1.15,2013-11-26 08:55:00,
2013-11-26 04:00:00,36.6,23.2,30.32,NE,39,0.0,0.0,58,0.00,,,0.00,Wunderground v.1.15,2013-11-26 09:00:00,
2013-11-26 04:10:00,36.6,23.2,30.32,NE,39,0.0,0.0,58,0.00,,,0.00,Wunderground v.1.15,2013-11-26 09:10:00,
2013-11-26 04:20:00,36.7,23.3,30.32,NE,39,0.0,0.0,58,0.00,,,0.00,Wunderground v.1.15,2013-11-26 09:20:00,
2013-11-26 04:25:00,36.8,23.4,30.32,NE,34,0.0,1.0,58,0.00,,,0.00,Wunderground v.1.15,2013-11-26 09:25:00,
2013-11-26 04:30:00,36.8,23.4,30.32,NE,34,0.0,0.0,58,0.00,,,0.00,Wunderground v.1.15,2013-11-26 09:30:00,
2013-11-26 04:35:00,36.9,23.9,30.32,NNE,33,0.0,0.0,59,0.00,,,0.00,Wunderground v.1.15,2013-11-26 09:35:00,
2013-11-26 04:40:00,36.9,23.5,30.32,NNE,33,0.0,0.0,58,0.00,,,0.00,Wunderground v.1.15,2013-11-26 09:40:00,
2013-11-26 04:45:00,37.0,24.0,30.32,NNE,33,0.0,0.0,59,0.00,,,0.00,Wunderground v.1.15,2013-11-26 09:45:00,
2013-11-26 04:55:00,37.1,23.7,30.32,NNE,33,0.0,0.0,58,0.00,,,0.00,Wunderground v.1.15,2013-11-26 09:55:00,
2013-11-26 05:00:00,37.1,24.1,30.32,NNE,33,0.0,0.0,59,0.00,,,0.00,Wunderground v.1.15,2013-11-26 10:00:00,
2013-11-26 05:10:00,37.2,23.8,30.31,NNE,33,0.0,0.0,58,0.00,,,0.00,Wunderground v.1.15,2013-11-26 10:10:00,
2013-11-26 05:15:00,37.3,23.9,30.31,NNE,33,0.0,0.0,58,0.00,,,0.00,Wunderground v.1.15,2013-11-26 10:15:00,
2013-11-26 05:25:00,37.4,24.0,30.31,NNE,31,0.0,4.0,58,0.00,,,0.00,Wunderground v.1.15,2013-11-26 10:25:00,
2013-11-26 05:30:00,37.4,24.4,30.31,NNE,31,0.0,0.0,59,0.00,,,0.00,Wunderground v.1.15,2013-11-26 10:30:00,
2013-11-26 05:35:00,37.5,24.5,30.31,NNE,31,0.0,0.0,59,0.00,,,0.00,Wunderground v.1.15,2013-11-26 10:35:00,
2013-11-26 05:40:00,37.6,24.1,30.32,NNE,28,0.0,0.0,58,0.00,,,0.00,Wunderground v.1.15,2013-11-26 10:40:00,
2013-11-26 05:45:00,37.6,24.1,30.31,NNE,28,0.0,0.0,58,0.00,,,0.00,Wunderground v.1.15,2013-11-26 10:45:00,
2013-11-26 05:50:00,37.6,24.6,30.31,NNE,27,0.0,1.0,59,0.00,,,0.00,Wunderground v.1.15,2013-11-26 10:50:00,
2013-11-26 05:55:00,37.6,24.6,30.31,NNE,18,0.0,1.0,59,0.00,,,0.00,Wunderground v.1.15,2013-11-26 10:55:00,
2013-11-26 06:00:00,37.7,24.6,30.31,NNE,18,0.0,0.0,59,0.00,,,0.00,Wunderground v.1.15,2013-11-26 11:00:00,
2013-11-26 06:10:00,37.8,24.7,30.31,NNE,18,0.0,0.0,59,0.00,,,0.00,Wunderground v.1.15,2013-11-26 11:10:00,
2013-11-26 06:15:00,37.8,24.7,30.31,North,5,1.0,1.0,59,0.00,,,0.00,Wunderground v.1.15,2013-11-26 11:15:00,
2013-11-26 06:20:00,37.8,24.3,30.31,North,5,1.0,1.0,58,0.00,,,0.00,Wunderground v.1.15,2013-11-26 11:20:00,
2013-11-26 06:25:00,37.9,24.8,30.31,North,360,0.0,1.0,59,0.00,,,0.00,Wunderground v.1.15,2013-11-26 11:25:00,
2013-11-26 06:30:00,37.9,24.4,30.30,North,360,0.0,0.0,58,0.00,,,0.00,Wunderground v.1.15,2013-11-26 11:30:00,
2013-11-26 06:35:00,37.9,24.4,30.30,North,360,0.0,0.0,58,0.00,,,0.00,Wunderground v.1.15,2013-11-26 11:35:00,
2013-11-26 06:45:00,38.0,24.5,30.30,North,355,0.0,0.0,58,0.00,,,0.00,Wunderground v.1.15,2013-11-26 11:45:00,
2013-11-26 06:50:00,38.0,24.5,30.30,North,360,1.0,1.0,58,0.00,,,0.00,Wunderground v.1.15,2013-11-26 11:50:00,
2013-11-26 06:55:00,38.1,24.6,30.31,North,360,0.0,1.0,58,0.00,,,0.00,Wunderground v.1.15,2013-11-26 11:55:00,
2013-11-26 07:00:00,38.1,25.0,30.31,North,360,0.0,0.0,59,0.00,,,0.00,Wunderground v.1.15,2013-11-26 12:00:00,
2013-11-26 07:10:00,38.2,25.1,30.31,North,11,0.0,0.0,59,0.00,,,0.00,Wunderground v.1.15,2013-11-26 12:10:00,
2013-11-26 07:15:00,38.2,25.1,30.30,NE,36,1.0,4.0,59,0.00,,,0.00,Wunderground v.1.15,2013-11-26 12:15:00,
2013-11-26 07:25:00,38.2,24.7,30.29,North,360,2.0,2.0,58,0.00,,,0.00,Wunderground v.1.15,2013-11-26 12:25:00,
2013-11-26 07:30:00,38.2,25.1,30.29,North,360,1.0,1.0,59,0.00,,,0.00,Wunderground v.1.15,2013-11-26 12:30:00,
2013-11-26 07:35:00,38.3,24.8,30.28,North,360,0.0,1.0,58,0.00,,,0.00,Wunderground v.1.15,2013-11-26 12:35:00,
2013-11-26 07:40:00,38.4,24.9,30.28,North,5,0.0,0.0,58,0.00,,,0.00,Wunderground v.1.15,2013-11-26 12:40:00,
2013-11-26 07:45:00,38.5,25.4,30.28,North,5,0.0,0.0,59,0.00,,,0.00,Wunderground v.1.15,2013-11-26 12:45:00,
2013-11-26 07:50:00,38.6,25.1,30.28,North,5,0.0,0.0,58,0.00,,,0.00,Wunderground v.1.15,2013-11-26 12:50:00,
2013-11-26 07:55:00,38.7,25.2,30.28,North,10,0.0,3.0,58,0.00,,,0.00,Wunderground v.1.15,2013-11-26 12:55:00,
2013-11-26 08:05:00,38.9,25.4,30.26,NNE,24,1.0,5.0,58,0.00,,,0.00,Wunderground v.1.15,2013-11-26 13:05:00,
2013-11-26 08:10:00,38.9,25.4,30.26,NNE,31,1.0,1.0,58,0.00,,,0.00,Wunderground v.1.15,2013-11-26 13:10:00,
2013-11-26 08:15:00,39.0,25.5,30.26,NE,37,1.0,1.0,58,0.00,,,0.00,Wunderground v.1.15,2013-11-26 13:15:00,
2013-11-26 08:20:00,39.1,25.6,30.26,NE,42,1.0,1.0,58,0.00,,,0.00,Wunderground v.1.15,2013-11-26 13:20:00,
2013-11-26 08:25:00,39.3,26.2,30.26,NE,43,1.0,2.0,59,0.00,,,0.00,Wunderground v.1.15,2013-11-26 13:25:00,
2013-11-26 08:30:00,39.5,25.9,30.25,NE,47,1.0,5.0,58,0.00,,,0.00,Wunderground v.1.15,2013-11-26 13:30:00,
2013-11-26 08:40:00,39.7,26.5,30.25,NE,48,1.0,1.0,59,0.00,,,0.00,Wunderground v.1.15,2013-11-26 13:40:00,
2013-11-26 08:45:00,39.9,26.3,30.25,NE,49,1.0,1.0,58,0.00,,,0.00,Wunderground v.1.15,2013-11-26 13:45:00,
2013-11-26 08:50:00,40.0,26.8,30.24,ENE,61,1.0,1.0,59,0.00,,,0.00,Wunderground v.1.15,2013-11-26 13:50:00,
2013-11-26 08:55:00,40.1,27.3,30.24,ENE,67,1.0,1.0,60,0.00,,,0.00,Wunderground v.1.15,2013-11-26 13:55:00,
2013-11-26 09:00:00,40.2,27.4,30.23,ENE,66,1.0,1.0,60,0.00,,,0.00,Wunderground v.1.15,2013-11-26 14:00:00,
2013-11-26 09:10:00,40.5,28.1,30.23,ENE,77,0.0,0.0,61,0.00,,,0.00,Wunderground v.1.15,2013-11-26 14:10:00,
2013-11-26 09:15:00,40.6,28.6,30.23,ENE,65,1.0,3.0,62,0.00,,,0.00,Wunderground v.1.15,2013-11-26 14:15:00,
2013-11-26 09:20:00,40.6,29.7,30.23,ENE,65,1.0,1.0,65,0.00,,,0.00,Wunderground v.1.15,2013-11-26 14:20:00,
2013-11-26 09:25:00,40.6,30.1,30.22,ENE,63,1.0,1.0,66,0.00,,,0.00,Wunderground v.1.15,2013-11-26 14:25:00,
2013-11-26 09:30:00,40.6,30.1,30.22,ENE,67,1.0,1.0,66,0.00,,,0.00,Wunderground v.1.15,2013-11-26 14:30:00,
2013-11-26 09:35:00,40.7,30.2,30.22,ENE,67,0.0,1.0,66,0.00,,,0.00,Wunderground v.1.15,2013-11-26 14:35:00,
2013-11-26 09:40:00,40.8,30.7,30.22,ENE,68,0.0,0.0,67,0.00,,,0.00,Wunderground v.1.15,2013-11-26 14:40:00,
2013-11-26 09:50:00,40.9,31.1,30.22,ENE,69,0.0,3.0,68,0.00,,,0.00,Wunderground v.1.15,2013-11-26 14:50:00,
2013-11-26 09:55:00,40.8,31.8,30.21,ENE,69,0.0,3.0,70,0.00,,,0.00,Wunderground v.1.15,2013-11-26 14:55:00,
2013-11-26 10:00:00,40.9,32.2,30.21,NNE,31,0.0,0.0,71,0.00,,,0.00,Wunderground v.1.15,2013-11-26 15:00:00,
2013-11-26 10:10:00,40.9,32.9,30.21,ENE,73,0.0,0.0,73,0.00,,,0.00,Wunderground v.1.15,2013-11-26 15:10:00,
2013-11-26 10:15:00,41.0,32.7,30.20,NE,51,0.0,0.0,72,0.00,,,0.00,Wunderground v.1.15,2013-11-26 15:15:00,
2013-11-26 10:25:00,41.3,33.3,30.21,NE,42,0.0,0.0,73,0.00,,,0.00,Wunderground v.1.15,2013-11-26 15:25:00,
2013-11-26 10:30:00,41.4,33.4,30.20,NE,44,1.0,1.0,73,0.00,,,0.00,Wunderground v.1.15,2013-11-26 15:30:00,
2013-11-26 10:35:00,41.6,34.3,30.20,NE,44,0.0,1.0,75,0.00,,,0.00,Wunderground v.1.15,2013-11-26 15:35:00,
2013-11-26 10:40:00,41.7,34.0,30.20,ENE,63,0.0,0.0,74,0.00,,,0.00,Wunderground v.1.15,2013-11-26 15:40:00,
2013-11-26 10:45:00,41.7,34.0,30.19,ENE,59,1.0,1.0,74,0.00,,,0.00,Wunderground v.1.15,2013-11-26 15:45:00,
2013-11-26 10:50:00,41.8,34.1,30.19,ENE,59,1.0,2.0,74,0.00,,,0.00,Wunderground v.1.15,2013-11-26 15:50:00,
2013-11-26 20:35:00,63.4,62.8,29.72,South,171,3.0,6.0,98,0.00,,,0.22,Wunderground v.1.15,2013-11-27 01:35:00,
2013-11-26 20:45:00,63.6,63.0,29.70,SE,129,3.0,11.0,98,0.00,,,0.22,Wunderground v.1.15,2013-11-27 01:45:00,
2013-11-26 20:50:00,63.8,63.2,29.70,South,182,3.0,11.0,98,0.00,,,0.23,Wunderground v.1.15,2013-11-27 01:50:00,
2013-11-26 20:55:00,63.8,63.2,29.69,SE,145,3.0,3.0,98,0.00,,,0.23,Wunderground v.1.15,2013-11-27 01:55:00,
2013-11-26 21:00:00,63.8,63.2,29.69,SSE,166,2.0,2.0,98,0.00,,,0.23,Wunderground v.1.15,2013-11-27 02:00:00,
2013-11-26 21:10:00,64.0,63.4,29.68,South,180,2.0,3.0,98,0.00,,,0.23,Wunderground v.1.15,2013-11-27 02:10:00,
2013-11-26 21:15:00,64.1,63.5,29.68,SSE,164,3.0,6.0,98,0.00,,,0.23,Wunderground v.1.15,2013-11-27 02:15:00,
2013-11-26 21:20:00,64.3,63.7,29.67,SE,140,4.0,4.0,98,0.00,,,0.23,Wunderground v.1.15,2013-11-27 02:20:00,
2013-11-26 21:25:00,64.4,63.8,29.67,SSE,150,5.0,5.0,98,0.00,,,0.23,Wunderground v.1.15,2013-11-27 02:25:00,
2013-11-26 21:30:00,64.5,63.9,29.66,South,176,4.0,4.0,98,0.00,,,0.23,Wunderground v.1.15,2013-11-27 02:30:00,
2013-11-26 21:35:00,64.7,64.1,29.66,SE,138,4.0,10.0,98,0.00,,,0.23,Wunderground v.1.15,2013-11-27 02:35:00,
2013-11-26 21:40:00,64.9,64.3,29.66,SSE,152,5.0,5.0,98,0.00,,,0.23,Wunderground v.1.15,2013-11-27 02:40:00,
2013-11-26 21:50:00,65.1,64.5,29.65,SSW,193,5.0,5.0,98,0.00,,,0.23,Wunderground v.1.15,2013-11-27 02:50:00,
2013-11-26 21:55:00,65.2,64.6,29.64,SE,127,5.0,5.0,98,0.00,,,0.23,Wunderground v.1.15,2013-11-27 02:55:00,
2013-11-26 22:05:00,65.3,64.7,29.64,South,171,5.0,8.0,98,0.00,,,0.23,Wunderground v.1.15,2013-11-27 03:05:00,
2013-11-26 22:10:00,65.5,64.9,29.63,SE,139,5.0,12.0,98,0.00,,,0.23,Wunderground v.1.15,2013-11-27 03:10:00,
2013-11-26 22:15:00,65.6,64.7,29.64,SE,127,5.0,12.0,97,0.00,,,0.24,Wunderground v.1.15,2013-11-27 03:15:00,
2013-11-26 22:25:00,65.9,65.3,29.63,South,178,7.0,9.0,98,0.00,,,0.24,Wunderground v.1.15,2013-11-27 03:25:00,
2013-11-26 22:30:00,66.0,65.1,29.63,SSW,192,6.0,8.0,97,0.00,,,0.24,Wunderground v.1.15,2013-11-27 03:30:00,
2013-11-26 22:35:00,66.1,65.2,29.63,SE,135,5.0,8.0,97,0.00,,,0.24,Wunderground v.1.15,2013-11-27 03:35:00,
2013-11-26 22:45:00,66.2,65.3,29.63,South,182,5.0,8.0,97,0.00,,,0.24,Wunderground v.1.15,2013-11-27 03:45:00,
2013-11-26 22:50:00,66.3,65.4,29.63,South,179,6.0,8.0,97,0.00,,,0.24,Wunderground v.1.15,2013-11-27 03:50:00,
2013-11-26 23:00:00,66.5,65.6,29.62,South,171,4.0,8.0,97,0.00,,,0.24,Wunderground v.1.15,2013-11-27 04:00:00,
2013-11-26 23:10:00,66.5,65.3,29.62,South,190,4.0,4.0,96,0.00,,,0.24,Wunderground v.1.15,2013-11-27 04:10:00,
2013-11-26 23:20:00,66.5,65.3,29.61,South,173,2.0,2.0,96,0.00,,,0.24,Wunderground v.1.15,2013-11-27 04:20:00,
2013-11-26 23:25:00,66.6,65.4,29.60,SSW,195,2.0,4.0,96,0.00,,,0.24,Wunderground v.1.15,2013-11-27 04:25:00,
2013-11-26 23:30:00,66.7,65.5,29.60,SSE,156,5.0,8.0,96,0.00,,,0.24,Wunderground v.1.15,2013-11-27 04:30:00,
2013-11-26 23:35:00,66.8,65.6,29.60,South,171,7.0,8.0,96,0.00,,,0.24,Wunderground v.1.15,2013-11-27 04:35:00,
2013-11-26 23:40:00,66.9,65.7,29.60,South,189,7.0,7.0,96,0.00,,,0.24,Wunderground v.1.15,2013-11-27 04:40:00,
2013-11-26 23:45:00,66.9,65.7,29.60,South,184,6.0,7.0,96,0.00,,,0.24,Wunderground v.1.15,2013-11-27 04:45:00,
2013-11-26 23:50:00,66.9,65.7,29.60,SSW,196,6.0,6.0,96,0.00,,,0.24,Wunderground v.1.15,2013-11-27 04:50:00,
2013-11-26 23:55:00,67.0,65.8,29.59,SSE,161,7.0,7.0,96,0.00,,,0.00,Wunderground v.1.15,2013-11-27 04:55:00,